Alamogordo, New Mexico
Current Conditions -  °F | °C
As of 4:58 PM on Monday 20 Oct 2014 (Local Time) from KHMN Reporting Station
Clear Clear  
Wind Chill: 62°   Ceiling: Unl
Heat Index: 62°   Visibility: 10mi
Dew Point: 57°   Wind: 2mph
Humidity: 83%   Direction: 180°S
Pressure: 30.05"   Gusts: NA
Location:  32.9°N, 105.96°W
Report Text: KHMN 202258Z AUTO 18002KT 10SM CLR 17/14 A3005 RMK AO2 LTG DSNT SW RAB2223E2239 SLP132 P0001 T01680139 $
Loading
Personal Weather Stations






























Interactive Weather Map New forecast layout! Learn more

10-Day Weather Forecast

Advertisements
Track Severe Weather on mobile